Wilson, Idaho
Current Conditions -  °F | °C
As of 12:55 PM on Sunday 23 Nov 2014 (Local Time) from KMAN Reporting Station
Broken Clouds Broken Clouds  
Wind Chill: 45°   Ceiling: 8500
Heat Index: 45°   Visibility: 10mi
Dew Point: 32°   Wind: 3mph
Humidity: 61%   Direction: 30°NNE
Pressure: 30.29"   Gusts: NA
Location:  43.3697°N, 116.52°W
Report Text: KMAN 231955Z AUTO 03003KT 10SM BKN085 07/00 A3029 RMK AO1
Loading
Personal Weather Stations






























Interactive Weather Map New forecast layout! Learn more

10-Day Weather Forecast

Advertisements
Track Severe Weather on mobile